Time;durP1;ratioP1;P1;durP2;ratioP2;P2;SDS_P1;SDS_P2;PMS_P1;PMS_P2;Temp;Humidity;BMP_temperature;BMP_pressure;BME280_temperature;BME280_humidity;BME280_pressure;Samples;Min_cycle;Max_cycle;Signal;HPM_P1;HPM_P2
2022/11/23 00:00:27;;;;;;;11.13;7.97;;;3.70;99.90;;;;;;5090791;28;20024;-52
2022/11/23 00:02:56;;;;;;;11.38;8.77;;;3.70;99.90;;;;;;5090760;28;20431;-53
2022/11/23 00:05:23;;;;;;;12.75;8.32;;;3.70;99.90;;;;;;5090842;28;20020;-53
2022/11/23 00:07:48;;;;;;;16.83;10.38;;;3.70;99.90;;;;;;5090895;28;20024;-52
2022/11/23 00:10:15;;;;;;;17.60;11.98;;;3.70;99.90;;;;;;5090778;28;20016;-52
2022/11/23 00:12:40;;;;;;;27.15;14.27;;;3.70;99.90;;;;;;5090579;28;20043;-51
2022/11/23 00:15:07;;;;;;;21.27;12.75;;;3.70;99.90;;;;;;5090655;28;20016;-53
2022/11/23 00:17:33;;;;;;;45.85;22.27;;;3.70;99.90;;;;;;5090762;28;20066;-51
2022/11/23 00:19:58;;;;;;;37.63;22.20;;;3.70;99.90;;;;;;5090167;28;20037;-51
2022/11/23 00:22:24;;;;;;;38.05;23.33;;;3.70;99.90;;;;;;5090659;28;20115;-51
2022/11/23 00:24:50;;;;;;;20.75;13.70;;;3.80;99.90;;;;;;5090297;28;20067;-52
2022/11/23 00:27:15;;;;;;;28.90;16.55;;;3.70;99.90;;;;;;5090630;28;20094;-50
2022/11/23 00:29:46;;;;;;;15.00;11.15;;;3.70;99.90;;;;;;5090437;28;20028;-50
2022/11/23 00:32:11;;;;;;;8.55;7.60;;;3.70;99.90;;;;;;5090295;28;20038;-52
2022/11/23 00:34:37;;;;;;;11.45;8.07;;;3.70;99.90;;;;;;5090523;28;20430;-52
2022/11/23 00:37:03;;;;;;;11.95;8.00;;;3.80;99.90;;;;;;5089781;28;20479;-52
2022/11/23 00:39:28;;;;;;;9.43;6.53;;;3.80;99.90;;;;;;5090622;28;20023;-52
2022/11/23 00:41:54;;;;;;;8.75;6.70;;;3.80;99.90;;;;;;5088957;28;20052;-51
2022/11/23 00:44:20;;;;;;;7.45;6.40;;;3.90;99.90;;;;;;5090193;28;20066;-52
2022/11/23 00:46:45;;;;;;;7.38;6.10;;;3.90;99.90;;;;;;5090196;28;20032;-52
2022/11/23 00:49:11;;;;;;;6.72;6.10;;;4.00;99.90;;;;;;5090296;28;20399;-53
2022/11/23 00:51:37;;;;;;;6.30;5.70;;;4.00;99.90;;;;;;5090123;28;20024;-52
2022/11/23 00:54:04;;;;;;;11.05;5.85;;;4.00;99.90;;;;;;5089144;28;20096;-51
2022/11/23 00:56:30;;;;;;;8.25;6.63;;;4.00;99.90;;;;;;5090017;28;20016;-53
2022/11/23 00:58:57;;;;;;;7.53;6.30;;;4.00;99.90;;;;;;5090084;28;20495;-51
2022/11/23 01:01:26;;;;;;;7.03;6.32;;;4.00;99.90;;;;;;5090180;28;20028;-50
2022/11/23 01:03:54;;;;;;;8.20;6.18;;;4.00;99.90;;;;;;5088675;28;20062;-51
2022/11/23 01:06:26;;;;;;;9.82;6.70;;;4.00;99.90;;;;;;5090295;28;20050;-49
2022/11/23 01:08:54;;;;;;;8.90;7.15;;;4.00;99.90;;;;;;5089896;28;20039;-51
2022/11/23 01:11:22;;;;;;;7.70;6.45;;;4.00;99.90;;;;;;5090001;28;20024;-51
2022/11/23 01:13:49;;;;;;;9.02;6.85;;;4.00;99.90;;;;;;5089907;28;20483;-50
2022/11/23 01:16:23;;;;;;;10.63;7.15;;;4.00;99.90;;;;;;5090029;28;20044;-51
2022/11/23 01:18:57;;;;;;;7.43;6.60;;;4.00;99.90;;;;;;5089699;28;20030;-53
2022/11/23 01:21:24;;;;;;;8.45;7.55;;;4.00;99.90;;;;;;5090115;28;20032;-51
2022/11/23 01:23:50;;;;;;;11.98;7.50;;;4.00;99.90;;;;;;5089632;28;20097;-52
2022/11/23 01:26:16;;;;;;;11.02;7.32;;;4.00;99.90;;;;;;5090074;28;20039;-52
2022/11/23 01:28:42;;;;;;;8.57;7.07;;;3.90;99.90;;;;;;5089704;28;20387;-49
2022/11/23 01:31:16;;;;;;;11.80;8.68;;;4.00;99.90;;;;;;5089836;28;20107;-50
2022/11/23 01:33:42;;;;;;;8.80;7.32;;;4.00;99.90;;;;;;5089813;28;20336;-51
2022/11/23 01:36:16;;;;;;;8.60;7.70;;;4.00;99.90;;;;;;5089737;28;20401;-52
2022/11/23 01:38:43;;;;;;;7.70;7.00;;;4.00;99.90;;;;;;5089789;28;20047;-50
2022/11/23 01:41:12;;;;;;;9.23;7.32;;;4.00;99.90;;;;;;5089631;28;20106;-51
2022/11/23 01:43:38;;;;;;;8.52;7.28;;;4.00;99.90;;;;;;5089637;28;20496;-50
2022/11/23 01:46:05;;;;;;;8.63;7.00;;;4.00;99.90;;;;;;5089747;28;20051;-50
2022/11/23 01:48:37;;;;;;;9.65;6.97;;;4.00;99.90;;;;;;5090822;28;20028;-50
2022/11/23 01:51:07;;;;;;;7.72;6.93;;;4.10;99.90;;;;;;5093302;28;20028;-50
2022/11/23 01:53:33;;;;;;;8.65;6.78;;;4.00;99.90;;;;;;5093286;28;20016;-53
2022/11/23 01:56:01;;;;;;;7.75;6.93;;;4.00;99.90;;;;;;5093187;28;20528;-50
2022/11/23 01:58:31;;;;;;;7.78;6.97;;;4.10;99.90;;;;;;5093075;28;20133;-50
2022/11/23 02:00:57;;;;;;;8.30;7.13;;;4.10;99.90;;;;;;5093073;28;20024;-50
2022/11/23 02:03:23;;;;;;;7.93;7.13;;;4.10;99.90;;;;;;5093394;28;20077;-51
2022/11/23 02:05:58;;;;;;;7.63;5.85;;;4.10;99.90;;;;;;5093078;28;20031;-50
2022/11/23 02:08:24;;;;;;;7.75;6.75;;;4.10;99.90;;;;;;5092934;28;20024;-50
2022/11/23 02:10:51;;;;;;;12.77;7.70;;;4.20;99.90;;;;;;5092804;28;20071;-51
2022/11/23 02:13:17;;;;;;;7.28;6.55;;;4.20;99.90;;;;;;5092910;28;20024;-50
2022/11/23 02:15:42;;;;;;;8.20;7.18;;;4.10;99.90;;;;;;5092595;28;20032;-50
2022/11/23 02:18:18;;;;;;;7.93;6.55;;;4.10;99.90;;;;;;5092938;28;20094;-51
2022/11/23 02:20:45;;;;;;;10.52;6.72;;;4.10;99.90;;;;;;5092469;28;20578;-50
2022/11/23 02:23:55;;;;;;;8.20;6.50;;;4.00;99.90;;;;;;5092731;28;20027;-52
2022/11/23 02:26:24;;;;;;;7.03;6.10;;;4.10;99.90;;;;;;5049654;28;20523;-51
2022/11/23 02:28:57;;;;;;;7.75;6.15;;;4.10;99.90;;;;;;5049435;28;20037;-50
2022/11/23 02:31:22;;;;;;;9.55;8.07;;;4.10;99.90;;;;;;5072359;28;20043;-51
2022/11/23 02:33:48;;;;;;;10.13;7.20;;;4.10;99.90;;;;;;5092277;28;20028;-53
2022/11/23 02:36:38;;;;;;;7.72;7.03;;;4.00;99.90;;;;;;5092571;28;20020;-50
2022/11/23 02:39:36;;;;;;;8.45;6.78;;;4.00;99.90;;;;;;5091300;28;20030;-50
2022/11/23 02:42:02;;;;;;;12.15;6.68;;;4.00;99.90;;;;;;5092240;28;20064;-53
2022/11/23 02:44:55;;;;;;;9.20;6.65;;;4.10;99.90;;;;;;5092255;28;20113;-49
2022/11/23 02:47:21;;;;;;;7.75;6.40;;;4.10;99.90;;;;;;5091977;28;20059;-49
2022/11/23 02:49:48;;;;;;;7.22;5.68;;;4.10;99.90;;;;;;5090745;28;20058;-51
2022/11/23 02:52:14;;;;;;;5.70;5.10;;;4.10;99.90;;;;;;5091944;28;20024;-51
2022/11/23 02:54:40;;;;;;;9.63;5.57;;;4.00;99.90;;;;;;5090683;28;20374;-52
2022/11/23 02:57:06;;;;;;;5.72;5.20;;;4.00;99.90;;;;;;5092134;28;20063;-50
2022/11/23 02:59:32;;;;;;;7.07;5.53;;;4.00;99.90;;;;;;5091512;28;20419;-50
2022/11/23 03:01:59;;;;;;;7.85;4.97;;;4.00;99.90;;;;;;5091944;28;20078;-52
2022/11/23 03:04:24;;;;;;;9.52;5.53;;;4.00;99.90;;;;;;5092010;28;20437;-52
2022/11/23 03:06:50;;;;;;;6.18;5.55;;;4.00;99.90;;;;;;5091958;28;20107;-50
2022/11/23 03:09:16;;;;;;;7.43;5.55;;;3.90;99.90;;;;;;5091775;28;20095;-50
2022/11/23 03:11:41;;;;;;;10.82;6.90;;;4.00;99.90;;;;;;5091525;28;20047;-51
2022/11/23 03:14:07;;;;;;;7.57;5.75;;;3.90;99.90;;;;;;5091823;28;20032;-52
2022/11/23 03:16:33;;;;;;;7.72;6.85;;;3.90;99.90;;;;;;5090560;28;20012;-52
2022/11/23 03:18:59;;;;;;;9.60;6.13;;;3.90;99.90;;;;;;5091608;28;20518;-51
2022/11/23 03:21:24;;;;;;;6.72;6.05;;;3.90;99.90;;;;;;5091493;28;20027;-51
2022/11/23 03:23:50;;;;;;;6.40;5.32;;;4.00;99.90;;;;;;5091382;28;20032;-50
2022/11/23 03:26:16;;;;;;;7.88;5.10;;;4.00;99.90;;;;;;5091602;28;20054;-50
2022/11/23 03:28:42;;;;;;;10.27;5.22;;;4.00;99.90;;;;;;5091248;28;20484;-50
2022/11/23 03:31:08;;;;;;;5.45;4.95;;;4.00;99.90;;;;;;5091414;28;20113;-50
2022/11/23 03:33:34;;;;;;;6.07;4.90;;;4.10;99.90;;;;;;5091235;28;20069;-50
2022/11/23 03:36:00;;;;;;;8.95;5.05;;;4.10;99.90;;;;;;5091246;28;20111;-50
2022/11/23 03:38:26;;;;;;;5.10;4.70;;;4.10;99.90;;;;;;5091207;28;20175;-49
2022/11/23 03:40:52;;;;;;;5.75;4.78;;;4.10;99.90;;;;;;5090933;28;20387;-50
2022/11/23 03:43:18;;;;;;;4.90;4.30;;;4.00;99.90;;;;;;5091313;28;20032;-50
2022/11/23 03:45:44;;;;;;;5.22;4.72;;;4.00;99.90;;;;;;5089606;28;20024;-51
2022/11/23 03:48:10;;;;;;;5.93;4.88;;;4.00;99.90;;;;;;5090168;28;20111;-50
2022/11/23 03:50:36;;;;;;;5.07;4.57;;;3.90;99.90;;;;;;5089666;28;20435;-52
2022/11/23 03:53:02;;;;;;;6.90;4.70;;;3.90;99.90;;;;;;5090886;28;20044;-54
2022/11/23 03:55:27;;;;;;;5.88;4.50;;;3.90;99.90;;;;;;5091034;28;20471;-50
2022/11/23 03:57:54;;;;;;;5.47;4.97;;;3.90;99.90;;;;;;5090588;28;20098;-53
2022/11/23 04:00:20;;;;;;;5.43;4.93;;;3.90;99.90;;;;;;5091299;28;20032;-50
2022/11/23 04:02:45;;;;;;;9.27;5.25;;;3.90;99.90;;;;;;5089552;28;20486;-51
2022/11/23 04:05:11;;;;;;;4.72;4.32;;;3.90;99.90;;;;;;5089577;28;20086;-52
2022/11/23 04:07:36;;;;;;;5.07;4.50;;;3.90;99.90;;;;;;5090252;28;20027;-52
2022/11/23 04:10:03;;;;;;;5.38;4.97;;;3.90;99.90;;;;;;5090580;28;20100;-52
2022/11/23 04:12:28;;;;;;;7.47;4.85;;;3.90;99.90;;;;;;5090367;28;20055;-53
2022/11/23 04:14:54;;;;;;;5.50;4.90;;;3.90;99.90;;;;;;5090655;28;20052;-51
2022/11/23 04:17:19;;;;;;;6.22;4.63;;;3.90;99.90;;;;;;5089363;28;20023;-51
2022/11/23 04:19:45;;;;;;;4.68;4.13;;;3.90;99.90;;;;;;5090356;28;20483;-50
2022/11/23 04:22:11;;;;;;;5.65;4.35;;;4.00;99.90;;;;;;5090618;28;20024;-51
2022/11/23 04:24:36;;;;;;;5.20;4.63;;;3.90;99.90;;;;;;5090228;28;20024;-54
2022/11/23 04:27:02;;;;;;;6.22;4.65;;;3.90;99.90;;;;;;5090505;28;20339;-51
2022/11/23 04:29:28;;;;;;;6.75;4.72;;;3.90;99.90;;;;;;5090519;28;20110;-53
2022/11/23 04:31:53;;;;;;;5.32;4.13;;;3.80;99.90;;;;;;5090300;28;20035;-51
2022/11/23 04:34:19;;;;;;;5.60;4.78;;;3.80;99.90;;;;;;5090677;28;20099;-51
2022/11/23 04:36:45;;;;;;;7.70;5.45;;;3.80;99.90;;;;;;5090135;28;20443;-51
2022/11/23 04:39:11;;;;;;;5.35;4.85;;;3.70;99.90;;;;;;5090840;28;20051;-50
2022/11/23 04:41:38;;;;;;;6.57;5.10;;;3.70;99.90;;;;;;5090084;28;20028;-52
2022/11/23 04:44:04;;;;;;;4.88;3.88;;;3.70;99.90;;;;;;5090531;28;20572;-51
2022/11/23 04:46:30;;;;;;;5.10;4.60;;;3.70;99.90;;;;;;5090358;28;20366;-50
2022/11/23 04:48:55;;;;;;;5.45;4.95;;;3.70;99.90;;;;;;5090257;28;20028;-52
2022/11/23 04:51:21;;;;;;;6.47;4.35;;;3.80;99.90;;;;;;5090221;28;20045;-50
2022/11/23 04:53:47;;;;;;;4.63;4.20;;;3.80;99.90;;;;;;5089889;28;20103;-52
2022/11/23 04:56:13;;;;;;;5.25;4.75;;;3.80;99.90;;;;;;5090302;28;20085;-50
2022/11/23 04:58:39;;;;;;;6.13;5.47;;;3.80;99.90;;;;;;5090148;28;20503;-51
2022/11/23 05:01:05;;;;;;;5.88;5.28;;;3.70;99.90;;;;;;5090274;28;20028;-53
2022/11/23 05:03:33;;;;;;;5.22;4.72;;;3.70;99.90;;;;;;5090106;28;20028;-50
2022/11/23 05:06:00;;;;;;;11.48;5.18;;;3.70;99.90;;;;;;5090202;28;20431;-50
2022/11/23 05:08:26;;;;;;;7.97;6.30;;;3.60;99.90;;;;;;5088699;28;20020;-50
2022/11/23 05:10:51;;;;;;;6.90;5.53;;;3.70;99.90;;;;;;5089718;28;20036;-53
2022/11/23 05:13:17;;;;;;;8.27;6.30;;;3.70;99.90;;;;;;5090172;28;20024;-51
2022/11/23 05:15:42;;;;;;;6.63;5.97;;;3.70;99.90;;;;;;5088692;28;20111;-51
2022/11/23 05:18:09;;;;;;;6.75;5.95;;;3.70;99.90;;;;;;5090066;28;20020;-51
2022/11/23 05:20:35;;;;;;;7.05;6.03;;;3.70;99.90;;;;;;5089771;28;20092;-50
2022/11/23 05:23:00;;;;;;;7.18;5.90;;;3.70;99.90;;;;;;5091963;28;20487;-52
2022/11/23 05:25:26;;;;;;;5.72;4.97;;;3.70;99.90;;;;;;5093854;28;20378;-50
2022/11/23 05:27:52;;;;;;;6.68;5.25;;;3.70;99.90;;;;;;5093516;28;20051;-53
2022/11/23 05:30:18;;;;;;;7.82;5.38;;;3.70;99.90;;;;;;5093501;28;20031;-53
2022/11/23 05:32:44;;;;;;;6.82;5.60;;;3.80;99.90;;;;;;5091849;28;20464;-57
2022/11/23 05:35:10;;;;;;;8.40;5.43;;;3.80;99.90;;;;;;5093597;28;20054;-51
2022/11/23 05:37:36;;;;;;;6.38;5.28;;;3.80;99.90;;;;;;5091550;28;20024;-54
2022/11/23 05:40:02;;;;;;;6.45;5.53;;;3.80;99.90;;;;;;5092052;28;20052;-53
2022/11/23 05:42:28;;;;;;;6.95;4.80;;;3.80;99.90;;;;;;5093286;28;20031;-52
2022/11/23 05:44:53;;;;;;;6.47;5.45;;;3.80;99.90;;;;;;5093280;28;20024;-52
2022/11/23 05:47:19;;;;;;;7.00;5.55;;;3.80;99.90;;;;;;5093458;28;20363;-51
2022/11/23 05:49:44;;;;;;;9.60;5.82;;;3.80;99.90;;;;;;5092943;28;20074;-51
2022/11/23 05:52:10;;;;;;;6.90;6.20;;;3.80;99.90;;;;;;5093196;28;20028;-55
2022/11/23 05:54:36;;;;;;;7.13;5.88;;;3.80;99.90;;;;;;5092879;28;20027;-53
2022/11/23 05:57:01;;;;;;;6.95;5.45;;;3.80;99.90;;;;;;5092854;28;20081;-54
2022/11/23 05:59:27;;;;;;;7.10;5.53;;;3.80;99.90;;;;;;5093297;28;20048;-52
2022/11/23 06:01:53;;;;;;;15.07;6.72;;;3.80;99.90;;;;;;5091969;28;20520;-55
2022/11/23 06:04:18;;;;;;;7.95;6.05;;;3.80;99.90;;;;;;5093128;28;20483;-53
2022/11/23 06:06:44;;;;;;;14.30;6.88;;;3.80;99.90;;;;;;5091548;28;20526;-55
2022/11/23 06:09:10;;;;;;;8.57;7.03;;;3.80;99.90;;;;;;5092807;28;20027;-50
2022/11/23 06:11:36;;;;;;;7.45;6.68;;;3.80;99.90;;;;;;5092912;28;20031;-55
2022/11/23 06:14:01;;;;;;;10.65;6.95;;;3.80;99.90;;;;;;5091350;28;20020;-54
2022/11/23 06:16:27;;;;;;;8.25;6.57;;;3.90;99.90;;;;;;5092902;28;20564;-53
2022/11/23 06:18:53;;;;;;;37.97;16.65;;;3.90;99.90;;;;;;5092722;28;20559;-50
2022/11/23 06:21:18;;;;;;;21.40;10.85;;;3.90;99.90;;;;;;5092747;28;20041;-54
2022/11/23 06:23:46;;;;;;;16.08;11.45;;;3.90;99.90;;;;;;5092419;28;20288;-54
2022/11/23 06:26:12;;;;;;;13.02;7.53;;;3.90;99.90;;;;;;5092891;28;20142;-54
2022/11/23 06:28:37;;;;;;;7.60;6.80;;;3.90;99.90;;;;;;5092395;28;20107;-54
2022/11/23 06:31:05;;;;;;;11.43;7.13;;;3.90;99.90;;;;;;5092467;28;20016;-54
2022/11/23 06:33:34;;;;;;;10.35;7.28;;;3.90;99.90;;;;;;5091816;28;20095;-52
2022/11/23 06:36:01;;;;;;;8.63;6.63;;;3.90;99.90;;;;;;5092101;28;20020;-50
2022/11/23 06:38:27;;;;;;;11.85;6.78;;;3.90;99.90;;;;;;5092408;28;20122;-52
2022/11/23 06:41:00;;;;;;;8.02;7.00;;;3.90;99.90;;;;;;5092406;28;20394;-53
2022/11/23 06:43:26;;;;;;;7.43;6.72;;;3.90;99.90;;;;;;5092345;28;20208;-53
2022/11/23 06:45:53;;;;;;;7.78;6.68;;;3.80;99.90;;;;;;5092264;28;20024;-53
2022/11/23 06:48:19;;;;;;;8.68;6.30;;;3.90;99.90;;;;;;5092164;28;20386;-50
2022/11/23 06:50:45;;;;;;;11.23;7.43;;;3.90;99.90;;;;;;5091757;28;20024;-51
2022/11/23 06:53:11;;;;;;;10.50;7.15;;;3.90;99.90;;;;;;5092564;28;20027;-51
2022/11/23 06:55:37;;;;;;;9.82;6.50;;;3.90;99.90;;;;;;5090631;28;20027;-54
2022/11/23 06:58:03;;;;;;;8.40;6.28;;;3.90;99.90;;;;;;5090644;28;20024;-52
2022/11/23 07:00:29;;;;;;;8.00;7.20;;;4.00;99.90;;;;;;5092054;28;20388;-50
2022/11/23 07:02:55;;;;;;;10.93;7.22;;;4.10;99.90;;;;;;5090311;28;20024;-50
2022/11/23 07:05:21;;;;;;;8.55;6.40;;;4.10;99.90;;;;;;5091885;28;20021;-52
2022/11/23 07:07:47;;;;;;;13.35;8.95;;;4.10;99.90;;;;;;5090423;28;20024;-50
2022/11/23 07:10:13;;;;;;;9.70;8.43;;;4.10;99.90;;;;;;5091742;28;20026;-52
2022/11/23 07:12:39;;;;;;;9.15;7.70;;;4.10;99.90;;;;;;5091410;28;20434;-50
2022/11/23 07:15:06;;;;;;;12.25;8.13;;;4.00;99.90;;;;;;5091703;28;20433;-51
2022/11/23 07:17:32;;;;;;;8.77;7.45;;;4.10;99.90;;;;;;5091564;28;20023;-51
2022/11/23 07:19:57;;;;;;;9.07;7.78;;;4.10;99.90;;;;;;5091341;28;20446;-52
2022/11/23 07:22:23;;;;;;;7.80;7.03;;;4.20;99.90;;;;;;5090210;28;20024;-49
2022/11/23 07:24:49;;;;;;;12.13;7.45;;;4.20;99.90;;;;;;5091477;28;20089;-51
2022/11/23 07:27:17;;;;;;;8.65;6.57;;;4.20;99.90;;;;;;5091721;28;20498;-53
2022/11/23 07:29:43;;;;;;;7.25;6.55;;;4.20;99.90;;;;;;5091210;28;20056;-52
2022/11/23 07:32:09;;;;;;;9.75;6.78;;;4.20;99.90;;;;;;5091182;28;20070;-50
2022/11/23 07:34:34;;;;;;;7.20;6.05;;;4.20;99.90;;;;;;5091491;28;20052;-52
2022/11/23 07:37:00;;;;;;;12.95;5.68;;;4.30;99.90;;;;;;5091088;28;20020;-52
2022/11/23 07:39:25;;;;;;;7.47;6.10;;;4.30;99.90;;;;;;5091339;28;20081;-51
2022/11/23 07:41:51;;;;;;;7.68;6.93;;;4.40;99.90;;;;;;5091124;28;20151;-51
2022/11/23 07:44:17;;;;;;;7.28;6.57;;;4.40;99.90;;;;;;5089862;28;20066;-50
2022/11/23 07:46:42;;;;;;;6.88;6.20;;;4.40;99.90;;;;;;5090770;28;20070;-52
2022/11/23 07:49:08;;;;;;;9.65;6.78;;;4.50;99.90;;;;;;5091272;28;20027;-51
2022/11/23 07:51:33;;;;;;;7.80;5.85;;;4.50;99.90;;;;;;5091064;28;20024;-52
2022/11/23 07:53:59;;;;;;;12.75;6.95;;;4.60;99.90;;;;;;5089582;28;20391;-51
2022/11/23 07:56:25;;;;;;;7.78;6.93;;;4.60;99.90;;;;;;5089741;28;20031;-54
2022/11/23 07:58:50;;;;;;;9.15;7.15;;;4.70;99.90;;;;;;5091061;28;20034;-54
2022/11/23 08:01:18;;;;;;;10.40;7.53;;;4.70;99.90;;;;;;5089677;28;20019;-52
2022/11/23 08:03:44;;;;;;;12.68;7.80;;;4.80;99.90;;;;;;5090713;28;20019;-53
2022/11/23 08:06:11;;;;;;;8.70;7.75;;;4.80;99.90;;;;;;5090771;28;20056;-49
2022/11/23 08:08:37;;;;;;;10.88;7.43;;;4.90;99.90;;;;;;5090859;28;20077;-54
2022/11/23 08:11:07;;;;;;;9.60;7.57;;;5.00;99.90;;;;;;5090552;28;20024;-54
2022/11/23 08:13:38;;;;;;;10.23;7.85;;;5.10;99.90;;;;;;5090825;28;20055;-52
2022/11/23 08:16:04;;;;;;;8.43;7.63;;;5.20;99.90;;;;;;5090489;28;20103;-54
2022/11/23 08:18:30;;;;;;;8.45;7.53;;;5.30;99.90;;;;;;5090391;28;20062;-53
2022/11/23 08:21:02;;;;;;;9.70;7.70;;;5.40;99.90;;;;;;5089221;28;20144;-50
2022/11/23 08:23:28;;;;;;;8.98;7.50;;;5.50;99.90;;;;;;5090536;28;20034;-54
2022/11/23 08:25:54;;;;;;;10.00;7.88;;;5.60;99.90;;;;;;5090567;28;20093;-53
2022/11/23 08:28:20;;;;;;;10.90;8.93;;;5.50;99.90;;;;;;5090526;28;20615;-53
2022/11/23 08:30:46;;;;;;;10.27;8.88;;;5.50;99.90;;;;;;5090097;28;20101;-53
2022/11/23 08:33:12;;;;;;;10.13;8.85;;;5.50;99.90;;;;;;5090544;28;20024;-53
2022/11/23 08:35:40;;;;;;;10.00;7.80;;;5.60;99.90;;;;;;5088912;28;20490;-55
2022/11/23 08:38:07;;;;;;;242.07;50.45;;;5.60;99.90;;;;;;5090407;28;20372;-51
2022/11/23 08:40:33;;;;;;;30.13;12.95;;;5.80;99.90;;;;;;5090551;28;20074;-54
2022/11/23 08:42:59;;;;;;;15.35;10.35;;;5.80;99.90;;;;;;5090168;28;20099;-51
2022/11/23 08:45:26;;;;;;;10.40;9.02;;;5.70;99.90;;;;;;5090128;28;20532;-54
2022/11/23 08:47:52;;;;;;;10.15;9.13;;;5.80;99.90;;;;;;5089000;28;20020;-54
2022/11/23 08:50:18;;;;;;;8.98;7.93;;;5.70;99.90;;;;;;5090249;28;20047;-50
2022/11/23 08:52:55;;;;;;;38.42;15.88;;;5.70;99.90;;;;;;5089989;28;20035;-52
2022/11/23 08:55:20;;;;;;;10.07;8.90;;;5.90;99.90;;;;;;5090297;28;20052;-53
2022/11/23 08:57:46;;;;;;;12.73;8.75;;;5.90;99.90;;;;;;5091760;28;20028;-52
2022/11/23 09:00:12;;;;;;;9.55;8.27;;;6.00;99.90;;;;;;5093059;28;20078;-52
2022/11/23 09:02:38;;;;;;;10.85;9.05;;;6.10;99.90;;;;;;5094179;28;20036;-52
2022/11/23 09:05:05;;;;;;;24.58;12.00;;;6.00;99.90;;;;;;5094190;28;20020;-55
2022/11/23 09:07:31;;;;;;;11.32;8.73;;;5.80;99.90;;;;;;5094116;28;20024;-52
2022/11/23 09:09:57;;;;;;;13.70;9.82;;;6.00;99.90;;;;;;5092821;28;20035;-51
2022/11/23 09:12:22;;;;;;;11.43;10.32;;;6.00;99.90;;;;;;5093882;28;20017;-55
2022/11/23 09:14:48;;;;;;;11.43;10.10;;;6.00;99.90;;;;;;5093720;28;20383;-51
2022/11/23 09:17:13;;;;;;;11.00;9.90;;;6.10;99.90;;;;;;5094362;28;20239;-52
2022/11/23 09:19:39;;;;;;;10.80;9.68;;;6.10;99.90;;;;;;5093600;28;20044;-51
2022/11/23 09:22:05;;;;;;;17.63;10.32;;;6.10;99.90;;;;;;5093943;28;20106;-53
2022/11/23 09:24:30;;;;;;;11.85;9.73;;;6.30;99.90;;;;;;5094004;28;20024;-54
2022/11/23 09:26:57;;;;;;;13.68;9.70;;;6.40;99.90;;;;;;5093614;28;20402;-54
2022/11/23 09:29:24;;;;;;;11.05;9.65;;;6.30;99.90;;;;;;5093747;28;20030;-54
2022/11/23 09:31:49;;;;;;;11.80;10.40;;;6.30;99.90;;;;;;5093637;28;20024;-53
2022/11/23 09:34:15;;;;;;;13.13;10.15;;;6.30;99.90;;;;;;5093719;28;20032;-53
2022/11/23 09:36:41;;;;;;;13.10;11.40;;;6.20;99.90;;;;;;5093476;28;20020;-50
2022/11/23 09:39:07;;;;;;;13.25;10.05;;;6.30;99.90;;;;;;5093783;28;20091;-53
2022/11/23 09:41:51;;;;;;;11.23;9.50;;;6.50;99.90;;;;;;5092123;28;20444;-53
2022/11/23 09:44:41;;;;;;;13.20;10.20;;;6.60;99.90;;;;;;5093658;28;20388;-50
2022/11/23 09:47:37;;;;;;;14.27;9.70;;;6.40;99.90;;;;;;5093451;28;20024;-51
2022/11/23 09:50:16;;;;;;;13.27;9.32;;;6.50;99.90;;;;;;5093278;28;20437;-53
2022/11/23 09:52:47;;;;;;;10.82;9.55;;;6.40;99.90;;;;;;5093183;28;20110;-51
2022/11/23 09:55:27;;;;;;;12.73;10.60;;;6.70;99.90;;;;;;5093231;28;20415;-53
2022/11/23 09:58:04;;;;;;;19.48;11.02;;;6.30;99.90;;;;;;5093081;28;20379;-54
2022/11/23 10:00:36;;;;;;;13.60;10.60;;;6.40;99.90;;;;;;5093025;28;20127;-51
2022/11/23 10:03:03;;;;;;;14.23;9.20;;;6.30;99.90;;;;;;5091737;28;20062;-55
2022/11/23 10:05:34;;;;;;;14.18;9.80;;;6.50;99.90;;;;;;5093194;28;20107;-52
2022/11/23 10:08:12;;;;;;;16.77;11.77;;;6.70;99.90;;;;;;5092583;28;20020;-54
2022/11/23 10:10:41;;;;;;;13.80;10.13;;;6.60;99.90;;;;;;5091919;28;20024;-49
2022/11/23 10:13:16;;;;;;;11.75;8.20;;;6.70;99.90;;;;;;5091591;28;20016;-52
2022/11/23 10:15:52;;;;;;;12.95;9.48;;;6.80;99.90;;;;;;5092703;28;20027;-52
2022/11/23 10:18:29;;;;;;;12.40;9.48;;;6.80;99.90;;;;;;5092975;28;20442;-52
2022/11/23 10:21:01;;;;;;;10.55;8.75;;;6.90;99.90;;;;;;5092648;28;20063;-53
2022/11/23 10:23:46;;;;;;;10.60;8.05;;;7.00;99.90;;;;;;5092829;28;20102;-50
2022/11/23 10:26:16;;;;;;;12.13;10.00;;;7.10;99.90;;;;;;5092510;28;20024;-50
2022/11/23 10:28:42;;;;;;;13.90;10.57;;;7.10;99.90;;;;;;5092707;28;20062;-50
2022/11/23 10:31:17;;;;;;;10.90;8.75;;;7.00;99.90;;;;;;5092426;28;20031;-56
2022/11/23 10:34:12;;;;;;;15.60;9.88;;;7.30;99.90;;;;;;5092323;28;20027;-53
2022/11/23 10:36:38;;;;;;;10.75;8.30;;;7.40;99.90;;;;;;5091944;28;20111;-51
2022/11/23 10:39:19;;;;;;;12.30;9.27;;;7.60;99.90;;;;;;5093011;28;20027;-54
2022/11/23 10:41:45;;;;;;;24.08;13.98;;;7.70;99.90;;;;;;5092287;28;20028;-54
2022/11/23 10:44:16;;;;;;;13.15;9.45;;;7.60;99.90;;;;;;5092119;28;20020;-52
2022/11/23 10:46:43;;;;;;;16.80;11.60;;;7.60;99.90;;;;;;5092291;28;20020;-51
2022/11/23 10:49:22;;;;;;;9.05;7.80;;;7.70;99.90;;;;;;5091082;28;20395;-51
2022/11/23 10:52:04;;;;;;;12.02;8.65;;;7.70;99.90;;;;;;5091913;28;20020;-56
2022/11/23 10:54:31;;;;;;;11.38;8.75;;;7.90;99.90;;;;;;5091818;28;20020;-52
2022/11/23 10:57:00;;;;;;;25.48;16.95;;;7.80;99.90;;;;;;5092005;28;20016;-53
2022/11/23 10:59:33;;;;;;;27.25;16.85;;;7.80;99.90;;;;;;5091994;28;20043;-52
2022/11/23 11:02:20;;;;;;;11.93;9.13;;;7.60;99.90;;;;;;5091852;28;20357;-51
2022/11/23 11:04:48;;;;;;;12.50;9.45;;;7.80;99.90;;;;;;5091790;28;20020;-50
2022/11/23 11:07:27;;;;;;;12.10;9.27;;;7.90;99.90;;;;;;5092157;28;20407;-52
2022/11/23 11:10:00;;;;;;;10.93;9.23;;;7.70;99.90;;;;;;5091483;28;20028;-52
2022/11/23 11:12:27;;;;;;;;;;;7.70;99.90;;;;;;5092258;28;20067;-54
2022/11/23 11:15:01;;;;;;;9.32;8.35;;;7.60;99.90;;;;;;5091591;28;19911;-50
2022/11/23 11:17:30;;;;;;;19.80;12.30;;;7.40;99.90;;;;;;5091749;28;20024;-51
2022/11/23 11:19:56;;;;;;;15.93;8.60;;;7.30;99.90;;;;;;5090884;28;20115;-53
2022/11/23 11:22:32;;;;;;;13.85;11.02;;;7.30;99.90;;;;;;5091888;28;20348;-51
2022/11/23 11:24:58;;;;;;;12.98;9.27;;;7.20;99.90;;;;;;5091334;28;20062;-53
2022/11/23 11:27:26;;;;;;;12.73;7.68;;;7.30;99.90;;;;;;5091118;28;20495;-53
2022/11/23 11:29:55;;;;;;;9.10;7.85;;;7.30;99.90;;;;;;5091334;28;20094;-53
2022/11/23 11:32:44;;;;;;;12.82;8.95;;;7.30;99.90;;;;;;5091427;28;20024;-50
2022/11/23 11:35:22;;;;;;;12.30;8.20;;;7.30;99.90;;;;;;5091291;28;20020;-51
2022/11/23 11:37:54;;;;;;;21.90;14.88;;;7.50;99.90;;;;;;5091166;28;20391;-50
2022/11/23 11:40:27;;;;;;;9.00;7.80;;;7.60;99.90;;;;;;5091178;28;20020;-52
2022/11/23 11:43:04;;;;;;;8.88;7.90;;;7.60;99.90;;;;;;5091093;28;20076;-52
2022/11/23 11:45:55;;;;;;;12.30;10.02;;;7.80;99.90;;;;;;5091336;28;20423;-50
2022/11/23 11:48:31;;;;;;;9.60;7.60;;;7.80;99.90;;;;;;5091043;28;20028;-52
2022/11/23 11:51:03;;;;;;;10.02;8.07;;;8.30;99.90;;;;;;5089681;28;20029;-50
2022/11/23 11:53:41;;;;;;;8.95;7.63;;;8.50;99.90;;;;;;5090858;28;20020;-54
2022/11/23 11:56:34;;;;;;;8.60;7.03;;;8.80;99.90;;;;;;5091224;28;20052;-50
2022/11/23 11:59:27;;;;;;;9.90;7.90;;;9.00;99.90;;;;;;5090785;28;20028;-55
2022/11/23 12:01:59;;;;;;;15.43;9.73;;;9.10;99.90;;;;;;5090658;28;20471;-54
2022/11/23 12:04:50;;;;;;;18.07;10.83;;;8.80;99.90;;;;;;5089765;28;20115;-52
2022/11/23 12:07:42;;;;;;;16.45;10.73;;;8.30;99.90;;;;;;5068999;28;20079;-55
2022/11/23 12:10:24;;;;;;;8.20;7.30;;;8.10;99.90;;;;;;5074394;28;20476;-53
2022/11/23 12:12:51;;;;;;;9.93;7.18;;;8.00;99.90;;;;;;5090450;28;20051;-50
2022/11/23 12:15:27;;;;;;;7.93;7.03;;;7.90;99.90;;;;;;5090779;28;20016;-50
2022/11/23 12:18:07;;;;;;;10.45;7.25;;;7.70;99.90;;;;;;5090430;28;20111;-51
2022/11/23 12:20:49;;;;;;;20.10;13.50;;;7.60;99.90;;;;;;5090552;28;20391;-51
2022/11/23 12:23:36;;;;;;;37.20;29.33;;;7.60;99.90;;;;;;5090583;28;20020;-54
2022/11/23 12:26:25;;;;;;;19.27;11.70;;;7.20;99.90;;;;;;5090362;28;20074;-54
2022/11/23 12:28:57;;;;;;;9.70;7.95;;;7.20;99.90;;;;;;5090280;28;20024;-52
2022/11/23 12:31:42;;;;;;;9.25;7.10;;;7.20;99.90;;;;;;5090122;28;20077;-52
2022/11/23 12:34:29;;;;;;;14.40;9.10;;;7.30;99.90;;;;;;5090564;28;20016;-52
2022/11/23 12:37:12;;;;;;;43.22;27.20;;;7.00;99.90;;;;;;5090122;28;20017;-52
2022/11/23 12:40:10;;;;;;;17.50;12.70;;;7.10;99.90;;;;;;5089972;28;20017;-57
2022/11/23 12:42:53;;;;;;;12.75;9.23;;;7.10;99.90;;;;;;5090377;28;20448;-54
2022/11/23 12:45:22;;;;;;;11.30;9.00;;;7.50;99.90;;;;;;5090454;28;20387;-52
2022/11/23 12:48:25;;;;;;;11.00;7.20;;;7.90;99.90;;;;;;5090206;28;20028;-52
2022/11/23 12:51:09;;;;;;;8.73;5.78;;;9.40;99.90;;;;;;5089911;28;20021;-53
2022/11/23 12:53:51;;;;;;;;;;;11.40;99.90;;;;;;5090901;28;20521;-54
2022/11/23 12:56:59;;;;;;;10.18;7.22;;;12.50;99.90;;;;;;5090366;28;19904;-55
2022/11/23 12:59:36;;;;;;;7.55;4.22;;;13.90;98.30;;;;;;5090315;28;20028;-55
2022/11/23 13:02:12;;;;;;;11.65;5.85;;;15.10;93.60;;;;;;5090118;28;20020;-56